createdAt,value
2023-09-25T00:01:44.388Z,24.60
2023-09-25T00:04:11.996Z,24.33
2023-09-25T00:06:39.327Z,24.72
2023-09-25T00:09:09.709Z,24.79
2023-09-25T00:11:37.276Z,24.72
2023-09-25T00:14:04.901Z,24.89
2023-09-25T00:16:32.114Z,25.19
2023-09-25T00:18:59.693Z,25.08
2023-09-25T00:21:27.052Z,24.16
2023-09-25T00:23:54.701Z,24.18
2023-09-25T00:26:22.223Z,24.17
2023-09-25T00:28:49.707Z,24.58
2023-09-25T00:31:17.333Z,24.62
2023-09-25T00:33:44.892Z,24.25
2023-09-25T00:36:12.175Z,24.10
2023-09-25T00:38:39.454Z,24.16
2023-09-25T00:41:06.990Z,24.63
2023-09-25T00:43:34.194Z,24.46
2023-09-25T00:46:01.404Z,24.18
2023-09-25T00:48:29.699Z,24.65
2023-09-25T00:50:57.867Z,25.01
2023-09-25T00:53:27.294Z,25.14
2023-09-25T00:55:54.993Z,24.59
2023-09-25T00:58:22.261Z,24.57
2023-09-25T01:00:49.539Z,25.41
2023-09-25T01:03:17.250Z,24.82
2023-09-25T01:05:44.850Z,25.21
2023-09-25T01:08:13.950Z,24.71
2023-09-25T01:10:42.086Z,24.97
2023-09-25T01:13:11.412Z,24.78
2023-09-25T01:15:40.372Z,24.89
2023-09-25T01:18:09.538Z,25.65
2023-09-25T01:20:37.133Z,25.54
2023-09-25T01:23:04.780Z,25.50
2023-09-25T01:25:32.366Z,25.87
2023-09-25T01:27:59.630Z,25.53
2023-09-25T01:30:27.199Z,25.19
2023-09-25T01:32:54.865Z,25.31
2023-09-25T01:35:24.585Z,25.58
2023-09-25T01:37:53.200Z,25.30
2023-09-25T01:40:20.774Z,25.02
2023-09-25T01:42:48.659Z,25.56
2023-09-25T01:45:20.861Z,25.78
2023-09-25T01:47:53.377Z,25.55
2023-09-25T01:50:22.379Z,25.44
2023-09-25T01:52:52.020Z,25.20
2023-09-25T01:55:19.240Z,24.87
2023-09-25T01:57:46.709Z,24.81
2023-09-25T02:00:14.582Z,25.55
2023-09-25T02:02:43.062Z,25.51
2023-09-25T02:05:10.690Z,25.54
2023-09-25T02:07:38.072Z,25.55
2023-09-25T02:10:06.103Z,25.63
2023-09-25T02:12:33.820Z,25.65
2023-09-25T02:15:03.430Z,24.71
2023-09-25T02:17:33.271Z,25.02
2023-09-25T02:20:14.914Z,25.17
2023-09-25T02:22:42.209Z,24.74
2023-09-25T02:25:10.210Z,24.78
2023-09-25T02:27:38.295Z,25.21
2023-09-25T02:30:07.235Z,25.45
2023-09-25T02:32:34.753Z,25.66
2023-09-25T02:35:02.184Z,25.09
2023-09-25T02:37:30.631Z,25.11
2023-09-25T02:39:58.083Z,24.27
2023-09-25T02:42:25.336Z,23.24
2023-09-25T02:44:52.874Z,23.40
2023-09-25T02:47:20.361Z,22.85
2023-09-25T02:49:47.564Z,22.61
2023-09-25T02:52:14.831Z,22.76
2023-09-25T02:54:42.389Z,22.81
2023-09-25T02:57:10.221Z,23.07
2023-09-25T02:59:37.616Z,23.16
2023-09-25T03:02:05.147Z,23.44
2023-09-25T03:04:33.211Z,23.74
2023-09-25T03:07:00.473Z,23.59
2023-09-25T03:09:28.694Z,23.62
2023-09-25T03:11:56.303Z,23.25
2023-09-25T03:14:23.551Z,23.09
2023-09-25T03:16:51.026Z,22.37
2023-09-25T03:19:18.257Z,22.90
2023-09-25T03:21:45.942Z,23.22
2023-09-25T03:24:13.472Z,23.43
2023-09-25T03:26:40.696Z,23.53
2023-09-25T03:29:07.935Z,23.88
2023-09-25T03:31:35.433Z,24.17
2023-09-25T03:34:02.712Z,23.75
2023-09-25T03:36:30.109Z,24.39
2023-09-25T03:38:58.152Z,24.33
2023-09-25T03:41:25.459Z,24.22
2023-09-25T03:43:52.666Z,23.89
2023-09-25T03:46:20.396Z,24.12
2023-09-25T03:48:48.198Z,24.29
2023-09-25T03:51:16.169Z,24.42
2023-09-25T03:53:43.730Z,24.45
2023-09-25T03:56:11.402Z,24.81
2023-09-25T03:58:38.607Z,24.79
2023-09-25T04:01:06.224Z,24.57
2023-09-25T04:03:34.089Z,24.74
2023-09-25T04:06:01.477Z,24.93
2023-09-25T04:08:28.667Z,24.91
2023-09-25T04:10:56.127Z,24.44
2023-09-25T04:13:24.165Z,24.87
2023-09-25T04:15:55.708Z,25.39
2023-09-25T04:18:23.367Z,24.93
2023-09-25T04:20:51.292Z,25.00
2023-09-25T04:23:18.524Z,24.85
2023-09-25T04:25:52.670Z,24.77
2023-09-25T04:28:21.328Z,25.36
2023-09-25T04:30:49.378Z,25.45
2023-09-25T04:33:16.671Z,25.62
2023-09-25T04:35:44.057Z,25.38
2023-09-25T04:38:11.586Z,25.10
2023-09-25T04:40:38.841Z,25.00
2023-09-25T04:43:06.028Z,24.79
2023-09-25T04:45:33.591Z,24.84
2023-09-25T04:48:01.001Z,25.38
2023-09-25T04:50:28.229Z,25.25
2023-09-25T04:52:55.690Z,25.09
2023-09-25T04:55:22.957Z,25.63
2023-09-25T04:57:50.412Z,24.68
2023-09-25T05:00:28.403Z,24.90
2023-09-25T05:02:57.013Z,24.86
2023-09-25T05:05:24.900Z,25.26
2023-09-25T05:07:53.056Z,25.18
2023-09-25T05:10:22.900Z,25.57
2023-09-25T05:12:51.151Z,25.92
2023-09-25T05:15:18.887Z,25.17
2023-09-25T05:17:46.500Z,24.97
2023-09-25T05:20:17.204Z,25.12
2023-09-25T05:22:45.832Z,25.03
2023-09-25T05:25:13.963Z,25.16
2023-09-25T05:27:42.260Z,25.42
2023-09-25T05:30:13.262Z,25.04
2023-09-25T05:32:41.529Z,25.06
2023-09-25T05:35:09.787Z,25.01
2023-09-25T05:37:37.822Z,25.57
2023-09-25T05:40:11.939Z,26.20
2023-09-25T05:42:39.688Z,25.37
2023-09-25T05:45:07.414Z,25.50
2023-09-25T05:47:35.068Z,25.10
2023-09-25T05:50:04.052Z,25.26
2023-09-25T05:52:31.266Z,25.29
2023-09-25T05:54:58.569Z,25.23
2023-09-25T05:57:26.990Z,25.71
2023-09-25T05:59:54.274Z,25.37
2023-09-25T06:02:25.128Z,25.65
2023-09-25T06:04:55.780Z,25.70
2023-09-25T06:07:23.159Z,25.66
2023-09-25T06:09:50.435Z,25.39
2023-09-25T06:12:17.986Z,25.46
2023-09-25T06:14:45.356Z,25.47
2023-09-25T06:17:12.645Z,24.49
2023-09-25T06:19:40.622Z,24.91
2023-09-25T06:22:07.950Z,25.25
2023-09-25T06:24:35.166Z,25.56
2023-09-25T06:27:05.953Z,25.30
2023-09-25T06:29:33.168Z,25.67
2023-09-25T06:32:02.008Z,25.97
2023-09-25T06:34:29.910Z,26.17
2023-09-25T06:36:57.331Z,26.07
2023-09-25T06:39:24.909Z,26.35
2023-09-25T06:41:52.561Z,26.30
2023-09-25T06:44:20.926Z,25.64
2023-09-25T06:46:48.370Z,25.87
2023-09-25T06:49:16.653Z,25.76
2023-09-25T06:51:43.927Z,26.01
2023-09-25T06:54:13.068Z,25.55
2023-09-25T06:56:40.638Z,25.18
2023-09-25T06:59:07.839Z,25.69
2023-09-25T07:01:35.103Z,26.41
2023-09-25T07:04:02.875Z,26.42
2023-09-25T07:06:31.466Z,26.25
2023-09-25T07:08:58.823Z,26.70
2023-09-25T07:11:26.533Z,26.16
2023-09-25T07:13:54.418Z,26.84
2023-09-25T07:16:21.717Z,26.30
2023-09-25T07:18:50.537Z,26.94
2023-09-25T07:21:18.198Z,26.70
2023-09-25T07:23:45.728Z,26.55
2023-09-25T07:26:16.938Z,26.65
2023-09-25T07:28:46.136Z,26.60
2023-09-25T07:31:16.625Z,26.66
2023-09-25T07:33:44.263Z,26.98
2023-09-25T07:36:11.606Z,27.32
2023-09-25T07:38:39.231Z,27.55
2023-09-25T07:41:07.178Z,27.88
2023-09-25T07:46:05.192Z,27.81
2023-09-25T07:48:32.676Z,27.48
2023-09-25T07:51:00.142Z,27.34
2023-09-25T07:53:29.645Z,27.88
2023-09-25T07:55:58.223Z,27.98
2023-09-25T07:58:25.445Z,27.65
2023-09-25T08:00:56.338Z,27.62
2023-09-25T08:03:24.532Z,27.25
2023-09-25T08:05:54.706Z,27.28
2023-09-25T08:08:22.587Z,27.55
2023-09-25T08:10:50.138Z,28.19
2023-09-25T08:13:19.474Z,28.18
2023-09-25T08:15:46.731Z,27.87
2023-09-25T08:18:15.533Z,27.48
2023-09-25T08:20:42.879Z,27.60
2023-09-25T08:23:10.728Z,27.92
2023-09-25T08:25:38.262Z,28.01
2023-09-25T08:28:05.439Z,28.73
2023-09-25T08:30:33.363Z,29.02
2023-09-25T08:33:01.002Z,29.12
2023-09-25T08:35:28.249Z,29.09
2023-09-25T08:37:55.887Z,28.48
2023-09-25T08:40:23.526Z,29.06
2023-09-25T08:42:59.012Z,29.38
2023-09-25T08:45:38.213Z,29.94
2023-09-25T08:48:06.461Z,30.20
2023-09-25T08:50:34.510Z,29.37
2023-09-25T08:53:02.553Z,29.39
2023-09-25T08:55:30.284Z,29.15
2023-09-25T08:57:57.984Z,29.23
2023-09-25T09:00:25.741Z,29.62
2023-09-25T09:02:53.356Z,30.57
2023-09-25T09:05:20.615Z,30.91
2023-09-25T09:08:01.230Z,30.89
2023-09-25T09:10:32.242Z,31.02
2023-09-25T09:13:03.077Z,30.88
2023-09-25T09:15:31.605Z,30.81
2023-09-25T09:17:59.185Z,30.45
2023-09-25T09:20:37.699Z,30.10
2023-09-25T09:23:07.169Z,30.30
2023-09-25T09:25:35.245Z,29.79
2023-09-25T09:28:05.752Z,29.59
2023-09-25T09:30:33.181Z,29.97
2023-09-25T09:33:00.760Z,29.64
2023-09-25T09:35:28.554Z,29.54
2023-09-25T09:37:56.814Z,29.67
2023-09-25T09:40:25.434Z,29.63
2023-09-25T09:42:53.295Z,29.52
2023-09-25T09:45:21.070Z,29.49
2023-09-25T09:47:54.681Z,29.77
2023-09-25T09:50:22.753Z,29.85
2023-09-25T09:52:50.497Z,29.76
2023-09-25T09:55:18.878Z,29.76
2023-09-25T09:57:46.418Z,29.76
2023-09-25T10:00:14.215Z,29.91
2023-09-25T10:02:41.827Z,29.78
2023-09-25T10:05:12.304Z,30.07
2023-09-25T10:07:58.507Z,30.04
2023-09-25T10:10:26.009Z,30.25
2023-09-25T10:12:54.157Z,30.14
2023-09-25T10:15:23.205Z,29.42
2023-09-25T10:17:50.843Z,29.93
2023-09-25T10:20:34.795Z,30.13
2023-09-25T10:23:09.396Z,30.20
2023-09-25T10:25:56.923Z,30.40
2023-09-25T10:28:31.541Z,30.49
2023-09-25T10:30:59.577Z,29.99
2023-09-25T10:33:30.625Z,30.06
2023-09-25T10:36:01.967Z,30.04
2023-09-25T10:38:32.349Z,30.16
2023-09-25T10:41:00.901Z,29.93
2023-09-25T10:43:28.150Z,29.72
2023-09-25T10:45:56.113Z,29.86
2023-09-25T10:48:26.658Z,29.70
2023-09-25T10:50:54.019Z,30.22
2023-09-25T10:53:23.100Z,30.24
2023-09-25T10:55:50.949Z,30.01
2023-09-25T10:58:19.552Z,29.78
2023-09-25T11:00:47.391Z,30.32
2023-09-25T11:03:14.898Z,30.12
2023-09-25T11:05:42.738Z,30.48
2023-09-25T11:08:11.543Z,29.94
2023-09-25T11:10:39.405Z,30.30
2023-09-25T11:13:07.003Z,30.37
2023-09-25T11:15:38.177Z,30.53
2023-09-25T11:18:08.013Z,29.91
2023-09-25T11:20:35.913Z,30.31
2023-09-25T11:23:18.349Z,30.61
2023-09-25T11:25:51.928Z,30.22
2023-09-25T11:28:26.604Z,30.96
2023-09-25T11:30:57.275Z,31.00
2023-09-25T11:33:25.009Z,31.22
2023-09-25T11:35:56.969Z,31.19
2023-09-25T11:38:26.519Z,31.11
2023-09-25T11:40:54.453Z,31.93
2023-09-25T11:43:24.401Z,32.19
2023-09-25T11:45:52.015Z,32.47
2023-09-25T11:48:19.842Z,32.27
2023-09-25T11:50:47.917Z,32.45
2023-09-25T11:53:15.584Z,33.07
2023-09-25T11:55:42.819Z,32.97
2023-09-25T11:58:10.686Z,33.20
2023-09-25T12:00:38.375Z,33.30
2023-09-25T12:03:09.937Z,33.82
2023-09-25T12:05:38.346Z,33.61
2023-09-25T12:08:13.620Z,33.52
2023-09-25T12:10:40.948Z,33.37
2023-09-25T12:13:10.044Z,33.54
2023-09-25T12:15:37.633Z,33.47
2023-09-25T12:18:05.340Z,33.80
2023-09-25T12:20:33.303Z,33.59
2023-09-25T12:23:00.502Z,33.85
2023-09-25T12:25:28.766Z,33.83
2023-09-25T12:27:56.372Z,33.38
2023-09-25T12:30:23.730Z,33.57
2023-09-25T12:32:51.169Z,33.52
2023-09-25T12:35:19.888Z,33.75
2023-09-25T12:37:47.819Z,33.88
2023-09-25T12:40:18.665Z,34.02
2023-09-25T12:42:55.287Z,33.77
2023-09-25T12:45:24.200Z,34.16
2023-09-25T12:47:52.191Z,33.81
2023-09-25T12:50:19.513Z,34.02
2023-09-25T12:52:49.717Z,34.18
2023-09-25T12:55:17.328Z,34.25
2023-09-25T12:57:44.632Z,34.16
2023-09-25T13:00:12.045Z,34.07
2023-09-25T13:02:39.574Z,34.58
2023-09-25T13:05:07.283Z,34.27
2023-09-25T13:07:34.744Z,34.39
2023-09-25T13:10:08.777Z,34.38
2023-09-25T13:12:36.119Z,34.17
2023-09-25T13:15:05.288Z,34.13
2023-09-25T13:17:35.233Z,34.23
2023-09-25T13:20:08.902Z,34.07
2023-09-25T13:22:38.252Z,34.09
2023-09-25T13:25:06.701Z,34.44
2023-09-25T13:27:34.244Z,34.56
2023-09-25T13:30:01.695Z,34.45
2023-09-25T13:32:29.922Z,34.53
2023-09-25T13:34:57.338Z,34.22
2023-09-25T13:37:24.631Z,34.26
2023-09-25T13:39:52.127Z,34.61
2023-09-25T13:42:20.051Z,34.35
2023-09-25T13:44:47.457Z,34.21
2023-09-25T13:47:15.404Z,34.06
2023-09-25T13:50:02.913Z,34.01
2023-09-25T13:52:31.714Z,34.44
2023-09-25T13:54:59.089Z,34.44
2023-09-25T13:57:26.338Z,34.06
2023-09-25T13:59:54.175Z,34.71
2023-09-25T14:02:23.735Z,34.14
2023-09-25T14:04:52.504Z,34.11
2023-09-25T14:07:20.687Z,34.69
2023-09-25T14:09:47.946Z,34.48
2023-09-25T14:12:15.426Z,34.42
2023-09-25T14:14:43.626Z,34.60
2023-09-25T14:17:10.952Z,33.54
2023-09-25T14:19:38.442Z,34.83
2023-09-25T14:22:05.727Z,34.28
2023-09-25T14:24:39.908Z,34.85
2023-09-25T14:27:11.118Z,35.01
2023-09-25T14:29:39.164Z,34.81
2023-09-25T14:32:06.625Z,35.05
2023-09-25T14:34:34.255Z,34.97
2023-09-25T14:37:01.577Z,34.64
2023-09-25T14:39:30.119Z,34.33
2023-09-25T14:41:57.968Z,35.10
2023-09-25T14:44:26.007Z,35.35
2023-09-25T14:46:54.661Z,34.88
2023-09-25T14:49:22.515Z,35.23
2023-09-25T14:51:52.590Z,34.80
2023-09-25T14:54:20.395Z,34.47
2023-09-25T14:56:47.863Z,34.85
2023-09-25T14:59:15.093Z,34.71
2023-09-25T15:01:42.395Z,34.89
2023-09-25T15:04:10.267Z,35.31
2023-09-25T15:06:37.594Z,35.27
2023-09-25T15:09:05.015Z,35.09
2023-09-25T15:11:32.583Z,35.20
2023-09-25T15:14:00.130Z,35.10
2023-09-25T15:16:27.707Z,35.31
2023-09-25T15:18:55.319Z,34.75
2023-09-25T15:21:22.561Z,34.30
2023-09-25T15:23:50.080Z,34.78
2023-09-25T15:26:17.725Z,34.47
2023-09-25T15:28:45.032Z,33.81
2023-09-25T15:31:12.356Z,34.14
2023-09-25T15:33:40.047Z,34.19
2023-09-25T15:36:07.835Z,34.23
2023-09-25T15:38:35.261Z,34.12
2023-09-25T15:41:02.875Z,33.64
2023-09-25T15:43:30.405Z,33.95
2023-09-25T15:45:57.689Z,34.16
2023-09-25T15:48:27.009Z,33.82
2023-09-25T15:50:54.278Z,34.01
2023-09-25T15:53:21.578Z,34.00
2023-09-25T15:55:49.348Z,33.78
2023-09-25T15:58:17.199Z,34.13
2023-09-25T16:00:44.614Z,33.48
2023-09-25T16:03:12.812Z,33.54
2023-09-25T16:05:40.462Z,33.32
2023-09-25T16:08:07.980Z,33.83
2023-09-25T16:10:35.659Z,33.44
2023-09-25T16:13:03.218Z,33.19
2023-09-25T16:15:34.254Z,33.30
2023-09-25T16:18:05.429Z,33.01
2023-09-25T16:20:34.175Z,32.86
2023-09-25T16:23:01.651Z,33.00
2023-09-25T16:25:30.089Z,33.25
2023-09-25T16:27:57.715Z,32.71
2023-09-25T16:30:26.421Z,33.07
2023-09-25T16:32:54.588Z,32.90
2023-09-25T16:35:22.333Z,33.11
2023-09-25T16:37:49.933Z,32.88
2023-09-25T16:40:17.562Z,32.65
2023-09-25T16:42:45.416Z,32.50
2023-09-25T16:45:13.281Z,32.09
2023-09-25T16:47:44.294Z,32.06
2023-09-25T16:50:11.563Z,31.59
2023-09-25T16:52:41.443Z,32.09
2023-09-25T16:55:10.680Z,32.12
2023-09-25T16:57:38.168Z,31.84
2023-09-25T17:00:06.483Z,31.26
2023-09-25T17:02:34.796Z,30.87
2023-09-25T17:05:02.187Z,31.07
2023-09-25T17:07:29.844Z,30.65
2023-09-25T17:09:58.839Z,30.65
2023-09-25T17:12:26.488Z,30.54
2023-09-25T17:14:54.659Z,30.71
2023-09-25T17:17:23.228Z,30.35
2023-09-25T17:19:51.186Z,30.13
2023-09-25T17:22:18.627Z,30.21
2023-09-25T17:24:46.432Z,30.02
2023-09-25T17:27:17.434Z,29.43
2023-09-25T17:29:47.823Z,30.01
2023-09-25T17:32:15.677Z,29.52
2023-09-25T17:34:46.998Z,30.03
2023-09-25T17:37:15.498Z,30.04
2023-09-25T17:39:43.421Z,29.98
2023-09-25T17:42:11.155Z,29.97
2023-09-25T17:44:39.010Z,30.05
2023-09-25T17:47:06.796Z,29.61
2023-09-25T17:49:34.724Z,29.48
2023-09-25T17:52:14.114Z,29.78
2023-09-25T17:54:50.240Z,29.27
2023-09-25T17:57:18.452Z,29.60
2023-09-25T17:59:46.805Z,29.66
2023-09-25T18:02:15.890Z,29.58
2023-09-25T18:04:45.246Z,29.49
2023-09-25T18:07:13.332Z,29.28
2023-09-25T18:09:41.517Z,28.62
2023-09-25T18:12:10.722Z,29.03
2023-09-25T18:14:41.974Z,28.69
2023-09-25T18:17:10.669Z,28.65
2023-09-25T18:19:39.244Z,28.42
2023-09-25T18:22:07.797Z,28.59
2023-09-25T18:24:36.579Z,28.67
2023-09-25T18:27:05.615Z,28.79
2023-09-25T18:29:36.626Z,28.61
2023-09-25T18:32:07.279Z,28.28
2023-09-25T18:34:39.320Z,28.26
2023-09-25T18:37:09.198Z,28.29
2023-09-25T18:39:37.938Z,28.33
2023-09-25T18:42:07.173Z,28.42
2023-09-25T18:44:37.461Z,28.80
2023-09-25T18:47:06.624Z,28.41
2023-09-25T18:49:36.912Z,28.31
2023-09-25T18:52:05.457Z,28.46
2023-09-25T18:54:35.116Z,28.85
2023-09-25T18:57:03.798Z,28.82
2023-09-25T18:59:31.319Z,28.91
2023-09-25T19:02:00.964Z,28.76
2023-09-25T19:04:29.759Z,28.23
2023-09-25T19:06:58.231Z,28.39
2023-09-25T19:09:29.193Z,28.41
2023-09-25T19:12:08.341Z,28.23
2023-09-25T19:14:36.490Z,28.10
2023-09-25T19:17:05.752Z,28.37
2023-09-25T19:19:33.556Z,28.29
2023-09-25T19:22:01.633Z,28.33
2023-09-25T19:24:29.734Z,28.13
2023-09-25T19:26:58.316Z,28.68
2023-09-25T19:29:28.502Z,27.99
2023-09-25T19:31:57.784Z,27.78
2023-09-25T19:34:26.223Z,27.91
2023-09-25T19:36:55.256Z,27.68
2023-09-25T19:39:24.956Z,27.94
2023-09-25T19:41:54.456Z,28.13
2023-09-25T19:44:22.478Z,27.68
2023-09-25T19:46:50.717Z,27.73
2023-09-25T19:49:20.709Z,28.28
2023-09-25T19:51:50.401Z,27.77
2023-09-25T19:54:20.776Z,27.73
2023-09-25T19:56:49.124Z,27.76
2023-09-25T19:59:16.657Z,28.00
2023-09-25T20:01:45.794Z,27.92
2023-09-25T20:04:14.139Z,28.10
2023-09-25T20:06:41.895Z,27.97
2023-09-25T20:09:11.495Z,27.79
2023-09-25T20:11:39.294Z,27.70
2023-09-25T20:14:07.192Z,27.69
2023-09-25T20:16:34.959Z,27.95
2023-09-25T20:19:03.646Z,27.97
2023-09-25T20:21:31.077Z,28.01
2023-09-25T20:23:58.526Z,28.04
2023-09-25T20:26:26.918Z,27.23
2023-09-25T20:28:54.179Z,27.43
2023-09-25T20:31:22.203Z,27.38
2023-09-25T20:33:50.174Z,27.65
2023-09-25T20:36:18.985Z,27.44
2023-09-25T20:38:48.727Z,27.70
2023-09-25T20:41:17.493Z,27.79
2023-09-25T20:43:45.031Z,27.25
2023-09-25T20:46:13.791Z,26.79
2023-09-25T20:48:43.053Z,27.10
2023-09-25T20:51:15.085Z,27.42
2023-09-25T20:53:44.004Z,27.38
2023-09-25T20:56:11.618Z,27.32
2023-09-25T20:58:39.104Z,27.26
2023-09-25T21:01:08.554Z,26.82
2023-09-25T21:03:35.946Z,27.43
2023-09-25T21:06:03.308Z,27.38
2023-09-25T21:08:30.830Z,27.21
2023-09-25T21:10:59.288Z,27.13
2023-09-25T21:13:26.658Z,27.10
2023-09-25T21:15:54.174Z,26.72
2023-09-25T21:18:21.472Z,27.10
2023-09-25T21:20:48.847Z,26.73
2023-09-25T21:23:16.345Z,26.63
2023-09-25T21:25:43.808Z,26.82
2023-09-25T21:28:11.063Z,26.56
2023-09-25T21:30:40.743Z,26.90
2023-09-25T21:33:08.184Z,26.67
2023-09-25T21:35:37.854Z,27.16
2023-09-25T21:38:05.394Z,27.35
2023-09-25T21:40:32.614Z,27.66
2023-09-25T21:43:00.031Z,27.47
2023-09-25T21:45:27.743Z,27.13
2023-09-25T21:47:54.960Z,26.79
2023-09-25T21:50:22.456Z,26.71
2023-09-25T21:52:50.000Z,26.70
2023-09-25T21:55:17.356Z,26.61
2023-09-25T21:57:44.614Z,26.90
2023-09-25T22:00:15.146Z,26.63
2023-09-25T22:02:42.846Z,26.56
2023-09-25T22:05:10.833Z,26.85
2023-09-25T22:07:38.961Z,26.87
2023-09-25T22:10:11.831Z,26.71
2023-09-25T22:12:39.408Z,26.85
2023-09-25T22:15:07.716Z,26.71
2023-09-25T22:17:34.989Z,26.38
2023-09-25T22:20:05.757Z,26.49
2023-09-25T22:22:33.674Z,26.90
2023-09-25T22:25:01.047Z,26.33
2023-09-25T22:27:28.259Z,26.59
2023-09-25T22:29:55.688Z,26.41
2023-09-25T22:32:22.854Z,26.39
2023-09-25T22:34:50.035Z,26.60
2023-09-25T22:37:21.157Z,26.91
2023-09-25T22:39:48.424Z,27.19
2023-09-25T22:42:15.731Z,26.55
2023-09-25T22:44:43.242Z,26.37
2023-09-25T22:47:10.586Z,26.65
2023-09-25T22:49:37.856Z,26.75
2023-09-25T22:52:05.462Z,26.28
2023-09-25T22:54:32.695Z,26.38
2023-09-25T22:56:59.896Z,26.90
2023-09-25T22:59:27.369Z,26.95
2023-09-25T23:02:14.510Z,26.61
2023-09-25T23:04:42.143Z,25.98
2023-09-25T23:07:09.975Z,25.91
2023-09-25T23:09:37.455Z,26.20
2023-09-25T23:12:05.751Z,26.37
2023-09-25T23:14:33.021Z,26.55
2023-09-25T23:17:00.697Z,25.43
2023-09-25T23:19:28.638Z,26.36
2023-09-25T23:21:56.303Z,26.52
2023-09-25T23:24:23.888Z,26.70
2023-09-25T23:26:51.358Z,26.55
2023-09-25T23:29:18.737Z,26.35
2023-09-25T23:31:46.044Z,26.32
2023-09-25T23:34:13.648Z,26.22
2023-09-25T23:36:41.082Z,26.71
2023-09-25T23:39:11.488Z,26.53
2023-09-25T23:41:39.360Z,26.51
2023-09-25T23:44:08.002Z,26.46
2023-09-25T23:46:35.305Z,25.96
2023-09-25T23:49:02.976Z,26.28
2023-09-25T23:51:30.216Z,26.67
2023-09-25T23:53:57.430Z,26.81
2023-09-25T23:56:25.157Z,26.02
2023-09-25T23:58:52.336Z,25.56
